sensor_id;sensor_type;location;lat;lon;timestamp;pressure;altitude;pressure_sealevel;temperature;humidity
14117;BME280;7137;51.436;6.544;2023-02-19T00:00:09;101360.19;;;10.86;100.00
14117;BME280;7137;51.436;6.544;2023-02-19T00:03:13;101355.22;;;11.11;100.00
14117;BME280;7137;51.436;6.544;2023-02-19T00:06:14;101364.00;;;11.08;100.00
14117;BME280;7137;51.436;6.544;2023-02-19T00:09:17;101359.16;;;11.30;100.00
14117;BME280;7137;51.436;6.544;2023-02-19T00:12:20;101357.59;;;11.21;100.00
14117;BME280;7137;51.436;6.544;2023-02-19T00:15:21;101357.06;;;11.44;100.00
14117;BME280;7137;51.436;6.544;2023-02-19T00:18:23;101350.31;;;10.98;100.00
14117;BME280;7137;51.436;6.544;2023-02-19T00:21:25;101346.72;;;10.64;100.00
14117;BME280;7137;51.436;6.544;2023-02-19T00:24:26;101340.84;;;10.93;100.00
14117;BME280;7137;51.436;6.544;2023-02-19T00:27:29;101340.16;;;10.83;100.00
14117;BME280;7137;51.436;6.544;2023-02-19T00:30:31;101343.31;;;10.99;100.00
14117;BME280;7137;51.436;6.544;2023-02-19T00:33:33;101333.69;;;11.01;100.00
14117;BME280;7137;51.436;6.544;2023-02-19T00:36:36;101340.56;;;11.05;100.00
14117;BME280;7137;51.436;6.544;2023-02-19T00:39:38;101349.22;;;11.07;100.00
14117;BME280;7137;51.436;6.544;2023-02-19T00:42:41;101340.75;;;10.96;100.00
14117;BME280;7137;51.436;6.544;2023-02-19T00:45:42;101331.06;;;11.01;100.00
14117;BME280;7137;51.436;6.544;2023-02-19T00:48:44;101318.88;;;11.02;100.00
14117;BME280;7137;51.436;6.544;2023-02-19T00:51:46;101324.22;;;10.95;100.00
14117;BME280;7137;51.436;6.544;2023-02-19T00:54:48;101323.81;;;11.14;100.00
14117;BME280;7137;51.436;6.544;2023-02-19T00:57:51;101330.09;;;11.05;100.00
14117;BME280;7137;51.436;6.544;2023-02-19T01:00:52;101329.09;;;11.11;100.00
14117;BME280;7137;51.436;6.544;2023-02-19T01:03:54;101331.25;;;10.93;100.00
14117;BME280;7137;51.436;6.544;2023-02-19T01:06:55;101332.09;;;10.94;100.00
14117;BME280;7137;51.436;6.544;2023-02-19T01:09:57;101333.84;;;10.93;100.00
14117;BME280;7137;51.436;6.544;2023-02-19T01:13:00;101325.63;;;10.73;100.00
14117;BME280;7137;51.436;6.544;2023-02-19T01:16:02;101330.47;;;10.90;100.00
14117;BME280;7137;51.436;6.544;2023-02-19T01:19:04;101332.38;;;10.82;100.00
14117;BME280;7137;51.436;6.544;2023-02-19T01:22:05;101342.28;;;11.06;100.00
14117;BME280;7137;51.436;6.544;2023-02-19T01:25:07;101326.63;;;11.05;100.00
14117;BME280;7137;51.436;6.544;2023-02-19T01:28:10;101332.00;;;10.98;100.00
14117;BME280;7137;51.436;6.544;2023-02-19T01:31:16;101333.19;;;10.84;100.00
14117;BME280;7137;51.436;6.544;2023-02-19T01:34:18;101344.50;;;10.86;100.00
14117;BME280;7137;51.436;6.544;2023-02-19T01:37:19;101334.50;;;10.64;100.00
14117;BME280;7137;51.436;6.544;2023-02-19T01:40:21;101335.81;;;10.85;100.00
14117;BME280;7137;51.436;6.544;2023-02-19T01:43:23;101337.50;;;10.86;100.00
14117;BME280;7137;51.436;6.544;2023-02-19T01:46:25;101339.91;;;10.95;100.00
14117;BME280;7137;51.436;6.544;2023-02-19T01:49:30;101348.00;;;10.83;100.00
14117;BME280;7137;51.436;6.544;2023-02-19T01:52:34;101343.88;;;10.75;100.00
14117;BME280;7137;51.436;6.544;2023-02-19T01:55:37;101346.03;;;10.56;100.00
14117;BME280;7137;51.436;6.544;2023-02-19T01:58:40;101353.28;;;10.42;100.00
14117;BME280;7137;51.436;6.544;2023-02-19T02:01:42;101348.06;;;10.40;100.00
14117;BME280;7137;51.436;6.544;2023-02-19T02:04:43;101348.84;;;10.45;100.00
14117;BME280;7137;51.436;6.544;2023-02-19T02:07:45;101350.34;;;10.57;100.00
14117;BME280;7137;51.436;6.544;2023-02-19T02:11:04;101351.84;;;10.67;100.00
14117;BME280;7137;51.436;6.544;2023-02-19T02:14:07;101357.44;;;10.50;100.00
14117;BME280;7137;51.436;6.544;2023-02-19T02:17:16;101363.63;;;10.46;100.00
14117;BME280;7137;51.436;6.544;2023-02-19T02:20:32;101365.19;;;10.55;100.00
14117;BME280;7137;51.436;6.544;2023-02-19T02:23:48;101361.72;;;10.56;100.00
14117;BME280;7137;51.436;6.544;2023-02-19T02:27:10;101358.91;;;10.63;100.00
14117;BME280;7137;51.436;6.544;2023-02-19T02:30:26;101354.84;;;10.50;100.00
14117;BME280;7137;51.436;6.544;2023-02-19T02:33:32;101358.19;;;10.57;100.00
14117;BME280;7137;51.436;6.544;2023-02-19T02:36:38;101359.06;;;10.57;100.00
14117;BME280;7137;51.436;6.544;2023-02-19T02:39:41;101354.97;;;10.44;100.00
14117;BME280;7137;51.436;6.544;2023-02-19T02:42:44;101355.88;;;10.43;100.00
14117;BME280;7137;51.436;6.544;2023-02-19T02:45:47;101351.31;;;10.51;100.00
14117;BME280;7137;51.436;6.544;2023-02-19T02:48:50;101359.25;;;10.48;100.00
14117;BME280;7137;51.436;6.544;2023-02-19T02:51:55;101349.75;;;10.44;100.00
14117;BME280;7137;51.436;6.544;2023-02-19T02:54:58;101360.00;;;10.53;100.00
14117;BME280;7137;51.436;6.544;2023-02-19T02:58:05;101354.88;;;10.49;100.00
14117;BME280;7137;51.436;6.544;2023-02-19T03:01:11;101365.63;;;10.33;100.00
14117;BME280;7137;51.436;6.544;2023-02-19T03:04:38;101362.91;;;10.38;100.00
14117;BME280;7137;51.436;6.544;2023-02-19T03:07:59;101363.66;;;10.45;100.00
14117;BME280;7137;51.436;6.544;2023-02-19T03:11:06;101373.19;;;10.47;100.00
14117;BME280;7137;51.436;6.544;2023-02-19T03:14:32;101378.50;;;10.43;100.00
14117;BME280;7137;51.436;6.544;2023-02-19T03:17:57;101372.44;;;10.40;100.00
14117;BME280;7137;51.436;6.544;2023-02-19T03:21:19;101375.09;;;10.39;100.00
14117;BME280;7137;51.436;6.544;2023-02-19T03:24:24;101381.16;;;10.39;100.00
14117;BME280;7137;51.436;6.544;2023-02-19T03:27:45;101386.75;;;10.64;100.00
14117;BME280;7137;51.436;6.544;2023-02-19T03:30:51;101384.19;;;10.63;100.00
14117;BME280;7137;51.436;6.544;2023-02-19T03:33:58;101387.53;;;10.68;100.00
14117;BME280;7137;51.436;6.544;2023-02-19T03:37:07;101392.09;;;10.60;100.00
14117;BME280;7137;51.436;6.544;2023-02-19T03:40:10;101395.38;;;10.68;100.00
14117;BME280;7137;51.436;6.544;2023-02-19T03:43:16;101403.22;;;10.68;100.00
14117;BME280;7137;51.436;6.544;2023-02-19T03:46:23;101396.38;;;10.62;100.00
14117;BME280;7137;51.436;6.544;2023-02-19T03:49:31;101405.25;;;10.54;100.00
14117;BME280;7137;51.436;6.544;2023-02-19T03:52:39;101400.84;;;10.57;100.00
14117;BME280;7137;51.436;6.544;2023-02-19T03:55:45;101406.13;;;10.56;100.00
14117;BME280;7137;51.436;6.544;2023-02-19T03:58:54;101407.22;;;10.44;100.00
14117;BME280;7137;51.436;6.544;2023-02-19T04:01:59;101416.94;;;10.36;100.00
14117;BME280;7137;51.436;6.544;2023-02-19T04:05:08;101416.59;;;10.53;100.00
14117;BME280;7137;51.436;6.544;2023-02-19T04:08:14;101420.16;;;10.49;100.00
14117;BME280;7137;51.436;6.544;2023-02-19T04:11:18;101427.22;;;10.45;100.00
14117;BME280;7137;51.436;6.544;2023-02-19T04:14:24;101438.31;;;10.56;100.00
14117;BME280;7137;51.436;6.544;2023-02-19T04:17:31;101439.47;;;10.40;100.00
14117;BME280;7137;51.436;6.544;2023-02-19T04:20:38;101444.97;;;10.26;100.00
14117;BME280;7137;51.436;6.544;2023-02-19T04:23:43;101444.06;;;10.27;100.00
14117;BME280;7137;51.436;6.544;2023-02-19T04:26:45;101454.06;;;10.02;100.00
14117;BME280;7137;51.436;6.544;2023-02-19T04:29:47;101450.81;;;9.90;100.00
14117;BME280;7137;51.436;6.544;2023-02-19T04:32:48;101452.63;;;9.85;100.00
14117;BME280;7137;51.436;6.544;2023-02-19T04:35:51;101461.22;;;9.91;100.00
14117;BME280;7137;51.436;6.544;2023-02-19T04:38:53;101464.66;;;9.93;100.00
14117;BME280;7137;51.436;6.544;2023-02-19T04:41:54;101469.75;;;10.02;100.00
14117;BME280;7137;51.436;6.544;2023-02-19T04:44:56;101474.97;;;10.02;100.00
14117;BME280;7137;51.436;6.544;2023-02-19T04:47:57;101472.44;;;9.96;100.00
14117;BME280;7137;51.436;6.544;2023-02-19T04:51:03;101469.03;;;9.93;100.00
14117;BME280;7137;51.436;6.544;2023-02-19T04:54:05;101478.53;;;9.95;100.00
14117;BME280;7137;51.436;6.544;2023-02-19T04:57:07;101480.34;;;9.92;100.00
14117;BME280;7137;51.436;6.544;2023-02-19T05:00:10;101479.44;;;9.94;100.00
14117;BME280;7137;51.436;6.544;2023-02-19T05:03:11;101483.72;;;10.00;100.00
14117;BME280;7137;51.436;6.544;2023-02-19T05:06:14;101488.06;;;9.98;100.00
14117;BME280;7137;51.436;6.544;2023-02-19T05:09:15;101497.63;;;10.00;100.00
14117;BME280;7137;51.436;6.544;2023-02-19T05:12:17;101499.31;;;10.03;100.00
14117;BME280;7137;51.436;6.544;2023-02-19T05:15:18;101504.47;;;10.06;100.00
14117;BME280;7137;51.436;6.544;2023-02-19T05:18:20;101508.72;;;10.11;100.00
14117;BME280;7137;51.436;6.544;2023-02-19T05:21:23;101517.56;;;10.03;100.00
14117;BME280;7137;51.436;6.544;2023-02-19T05:24:24;101521.13;;;9.97;100.00
14117;BME280;7137;51.436;6.544;2023-02-19T05:27:26;101522.00;;;9.99;100.00
14117;BME280;7137;51.436;6.544;2023-02-19T05:30:30;101524.78;;;9.89;100.00
14117;BME280;7137;51.436;6.544;2023-02-19T05:33:32;101534.34;;;9.88;100.00
14117;BME280;7137;51.436;6.544;2023-02-19T05:36:35;101537.78;;;9.90;100.00
14117;BME280;7137;51.436;6.544;2023-02-19T05:39:37;101534.41;;;9.82;100.00
14117;BME280;7137;51.436;6.544;2023-02-19T05:42:38;101539.50;;;9.91;100.00
14117;BME280;7137;51.436;6.544;2023-02-19T05:45:40;101537.72;;;9.93;100.00
14117;BME280;7137;51.436;6.544;2023-02-19T05:48:42;101543.63;;;10.06;100.00
14117;BME280;7137;51.436;6.544;2023-02-19T05:51:45;101541.75;;;10.16;100.00
14117;BME280;7137;51.436;6.544;2023-02-19T05:54:46;101554.97;;;10.03;100.00
14117;BME280;7137;51.436;6.544;2023-02-19T05:57:48;101549.59;;;10.14;100.00
14117;BME280;7137;51.436;6.544;2023-02-19T06:00:49;101548.84;;;10.06;100.00
14117;BME280;7137;51.436;6.544;2023-02-19T06:03:51;101550.47;;;10.15;100.00
14117;BME280;7137;51.436;6.544;2023-02-19T06:06:54;101552.13;;;10.19;100.00
14117;BME280;7137;51.436;6.544;2023-02-19T06:09:55;101556.06;;;9.90;100.00
14117;BME280;7137;51.436;6.544;2023-02-19T06:12:57;101564.16;;;9.70;100.00
14117;BME280;7137;51.436;6.544;2023-02-19T06:15:58;101551.94;;;9.74;100.00
14117;BME280;7137;51.436;6.544;2023-02-19T06:19:01;101554.47;;;9.80;100.00
14117;BME280;7137;51.436;6.544;2023-02-19T06:22:04;101558.13;;;9.67;100.00
14117;BME280;7137;51.436;6.544;2023-02-19T06:25:06;101564.41;;;9.52;100.00
14117;BME280;7137;51.436;6.544;2023-02-19T06:28:11;101574.81;;;9.55;100.00
14117;BME280;7137;51.436;6.544;2023-02-19T06:31:13;101573.97;;;9.53;100.00
14117;BME280;7137;51.436;6.544;2023-02-19T06:34:15;101582.41;;;9.70;100.00
14117;BME280;7137;51.436;6.544;2023-02-19T06:37:18;101576.19;;;9.80;100.00
14117;BME280;7137;51.436;6.544;2023-02-19T06:40:20;101589.84;;;9.98;100.00
14117;BME280;7137;51.436;6.544;2023-02-19T06:43:21;101582.16;;;9.90;100.00
14117;BME280;7137;51.436;6.544;2023-02-19T06:46:23;101587.06;;;10.10;100.00
14117;BME280;7137;51.436;6.544;2023-02-19T06:49:24;101597.09;;;9.79;100.00
14117;BME280;7137;51.436;6.544;2023-02-19T06:52:37;101611.22;;;9.63;100.00
14117;BME280;7137;51.436;6.544;2023-02-19T06:55:38;101620.84;;;9.59;100.00
14117;BME280;7137;51.436;6.544;2023-02-19T06:58:40;101625.13;;;9.65;100.00
14117;BME280;7137;51.436;6.544;2023-02-19T07:01:42;101623.47;;;9.56;100.00
14117;BME280;7137;51.436;6.544;2023-02-19T07:04:44;101626.94;;;9.58;100.00
14117;BME280;7137;51.436;6.544;2023-02-19T07:07:46;101627.66;;;9.69;100.00
14117;BME280;7137;51.436;6.544;2023-02-19T07:10:53;101633.66;;;9.77;100.00
14117;BME280;7137;51.436;6.544;2023-02-19T07:13:56;101627.44;;;9.85;100.00
14117;BME280;7137;51.436;6.544;2023-02-19T07:16:57;101637.28;;;9.66;100.00
14117;BME280;7137;51.436;6.544;2023-02-19T07:19:59;101654.56;;;9.74;100.00
14117;BME280;7137;51.436;6.544;2023-02-19T07:23:01;101661.59;;;9.68;100.00
14117;BME280;7137;51.436;6.544;2023-02-19T07:26:03;101669.44;;;9.66;100.00
14117;BME280;7137;51.436;6.544;2023-02-19T07:29:05;101672.84;;;9.73;100.00
14117;BME280;7137;51.436;6.544;2023-02-19T07:32:08;101676.34;;;9.70;100.00
14117;BME280;7137;51.436;6.544;2023-02-19T07:35:09;101685.16;;;9.62;100.00
14117;BME280;7137;51.436;6.544;2023-02-19T07:38:14;101682.38;;;9.75;100.00
14117;BME280;7137;51.436;6.544;2023-02-19T07:41:16;101691.97;;;9.73;100.00
14117;BME280;7137;51.436;6.544;2023-02-19T07:44:17;101702.16;;;9.93;100.00
14117;BME280;7137;51.436;6.544;2023-02-19T07:47:19;101715.16;;;9.96;100.00
14117;BME280;7137;51.436;6.544;2023-02-19T07:50:20;101708.28;;;9.91;100.00
14117;BME280;7137;51.436;6.544;2023-02-19T07:53:24;101717.59;;;10.08;100.00
14117;BME280;7137;51.436;6.544;2023-02-19T07:56:26;101713.38;;;10.00;100.00
14117;BME280;7137;51.436;6.544;2023-02-19T07:59:27;101714.19;;;10.05;100.00
14117;BME280;7137;51.436;6.544;2023-02-19T08:02:30;101731.47;;;10.15;100.00
14117;BME280;7137;51.436;6.544;2023-02-19T08:06:01;101736.53;;;10.29;100.00
14117;BME280;7137;51.436;6.544;2023-02-19T08:09:04;101739.31;;;10.14;100.00
14117;BME280;7137;51.436;6.544;2023-02-19T08:12:07;101738.28;;;10.28;100.00
14117;BME280;7137;51.436;6.544;2023-02-19T08:15:27;101730.19;;;10.45;100.00
14117;BME280;7137;51.436;6.544;2023-02-19T08:18:30;101737.09;;;10.49;100.00
14117;BME280;7137;51.436;6.544;2023-02-19T08:21:32;101744.72;;;10.63;100.00
14117;BME280;7137;51.436;6.544;2023-02-19T08:24:35;101751.94;;;10.47;100.00
14117;BME280;7137;51.436;6.544;2023-02-19T08:27:41;101755.28;;;10.55;100.00
14117;BME280;7137;51.436;6.544;2023-02-19T08:30:45;101752.72;;;10.52;100.00
14117;BME280;7137;51.436;6.544;2023-02-19T08:33:47;101748.13;;;10.68;100.00
14117;BME280;7137;51.436;6.544;2023-02-19T08:36:48;101746.50;;;10.61;100.00
14117;BME280;7137;51.436;6.544;2023-02-19T08:39:51;101749.69;;;10.80;100.00
14117;BME280;7137;51.436;6.544;2023-02-19T08:42:52;101752.09;;;10.93;100.00
14117;BME280;7137;51.436;6.544;2023-02-19T08:45:54;101758.09;;;11.00;100.00
14117;BME280;7137;51.436;6.544;2023-02-19T08:48:55;101763.59;;;10.82;100.00
14117;BME280;7137;51.436;6.544;2023-02-19T08:51:57;101763.84;;;10.66;100.00
14117;BME280;7137;51.436;6.544;2023-02-19T08:54:59;101771.97;;;10.47;100.00
14117;BME280;7137;51.436;6.544;2023-02-19T08:58:01;101773.56;;;10.58;100.00
14117;BME280;7137;51.436;6.544;2023-02-19T09:01:07;101764.69;;;10.67;100.00
14117;BME280;7137;51.436;6.544;2023-02-19T09:04:11;101775.72;;;10.87;100.00
14117;BME280;7137;51.436;6.544;2023-02-19T09:07:12;101782.84;;;10.76;100.00
14117;BME280;7137;51.436;6.544;2023-02-19T09:10:16;101792.28;;;10.88;100.00
14117;BME280;7137;51.436;6.544;2023-02-19T09:13:18;101800.59;;;10.54;100.00
14117;BME280;7137;51.436;6.544;2023-02-19T09:16:19;101806.78;;;10.47;100.00
14117;BME280;7137;51.436;6.544;2023-02-19T09:19:21;101815.59;;;10.38;100.00
14117;BME280;7137;51.436;6.544;2023-02-19T09:22:23;101812.34;;;10.18;100.00
14117;BME280;7137;51.436;6.544;2023-02-19T09:25:26;101825.59;;;10.03;100.00
14117;BME280;7137;51.436;6.544;2023-02-19T09:28:28;101830.28;;;9.69;100.00
14117;BME280;7137;51.436;6.544;2023-02-19T09:31:29;101834.66;;;9.67;100.00
14117;BME280;7137;51.436;6.544;2023-02-19T09:34:34;101830.31;;;9.66;100.00
14117;BME280;7137;51.436;6.544;2023-02-19T09:37:35;101816.09;;;9.96;100.00
14117;BME280;7137;51.436;6.544;2023-02-19T09:40:38;101826.06;;;10.37;100.00
14117;BME280;7137;51.436;6.544;2023-02-19T09:43:41;101819.16;;;10.33;100.00
14117;BME280;7137;51.436;6.544;2023-02-19T09:46:45;101821.66;;;10.44;100.00
14117;BME280;7137;51.436;6.544;2023-02-19T09:49:48;101824.97;;;10.56;100.00
14117;BME280;7137;51.436;6.544;2023-02-19T09:52:54;101830.97;;;10.63;100.00
14117;BME280;7137;51.436;6.544;2023-02-19T09:55:58;101847.28;;;10.79;100.00
14117;BME280;7137;51.436;6.544;2023-02-19T09:59:01;101853.69;;;10.58;100.00
14117;BME280;7137;51.436;6.544;2023-02-19T10:02:10;101859.63;;;10.70;100.00
14117;BME280;7137;51.436;6.544;2023-02-19T10:05:15;101857.00;;;10.70;100.00
14117;BME280;7137;51.436;6.544;2023-02-19T10:08:18;101874.06;;;10.28;100.00
14117;BME280;7137;51.436;6.544;2023-02-19T10:11:23;101896.69;;;10.26;100.00
14117;BME280;7137;51.436;6.544;2023-02-19T10:14:31;101898.44;;;10.27;100.00
14117;BME280;7137;51.436;6.544;2023-02-19T10:17:35;101883.69;;;10.23;100.00
14117;BME280;7137;51.436;6.544;2023-02-19T10:20:37;101892.44;;;10.18;100.00
14117;BME280;7137;51.436;6.544;2023-02-19T10:23:39;101897.50;;;10.33;100.00
14117;BME280;7137;51.436;6.544;2023-02-19T10:26:42;101919.13;;;10.46;100.00
14117;BME280;7137;51.436;6.544;2023-02-19T10:29:45;101921.19;;;10.13;100.00
14117;BME280;7137;51.436;6.544;2023-02-19T10:33:01;101933.50;;;10.02;100.00
14117;BME280;7137;51.436;6.544;2023-02-19T10:36:04;101932.63;;;10.01;100.00
14117;BME280;7137;51.436;6.544;2023-02-19T10:39:33;101929.13;;;10.04;100.00
14117;BME280;7137;51.436;6.544;2023-02-19T10:42:44;101927.41;;;9.98;100.00
14117;BME280;7137;51.436;6.544;2023-02-19T10:45:48;101936.03;;;10.08;100.00
14117;BME280;7137;51.436;6.544;2023-02-19T10:48:53;101940.22;;;10.29;100.00
14117;BME280;7137;51.436;6.544;2023-02-19T10:51:58;101944.25;;;10.57;100.00
14117;BME280;7137;51.436;6.544;2023-02-19T10:55:14;101946.81;;;10.62;100.00
14117;BME280;7137;51.436;6.544;2023-02-19T10:58:23;101952.06;;;10.60;100.00
14117;BME280;7137;51.436;6.544;2023-02-19T11:01:26;101965.34;;;10.37;100.00
14117;BME280;7137;51.436;6.544;2023-02-19T11:04:28;101963.59;;;10.43;100.00
14117;BME280;7137;51.436;6.544;2023-02-19T11:07:33;101957.38;;;10.51;100.00
14117;BME280;7137;51.436;6.544;2023-02-19T11:10:38;101971.13;;;10.70;100.00
14117;BME280;7137;51.436;6.544;2023-02-19T11:13:43;101977.91;;;10.83;100.00
14117;BME280;7137;51.436;6.544;2023-02-19T11:16:47;101968.75;;;11.18;100.00
14117;BME280;7137;51.436;6.544;2023-02-19T11:19:52;101977.34;;;11.27;100.00
14117;BME280;7137;51.436;6.544;2023-02-19T11:22:58;101980.31;;;11.02;100.00
14117;BME280;7137;51.436;6.544;2023-02-19T11:26:03;101973.56;;;10.82;100.00
14117;BME280;7137;51.436;6.544;2023-02-19T11:29:16;101970.31;;;10.63;100.00
14117;BME280;7137;51.436;6.544;2023-02-19T11:32:26;101974.81;;;10.51;100.00
14117;BME280;7137;51.436;6.544;2023-02-19T11:35:29;101962.09;;;10.11;100.00
14117;BME280;7137;51.436;6.544;2023-02-19T11:38:31;101953.41;;;10.10;100.00
14117;BME280;7137;51.436;6.544;2023-02-19T11:41:48;101953.28;;;10.27;100.00
14117;BME280;7137;51.436;6.544;2023-02-19T11:45:03;101942.25;;;10.78;100.00
14117;BME280;7137;51.436;6.544;2023-02-19T11:48:20;101941.13;;;10.97;100.00
14117;BME280;7137;51.436;6.544;2023-02-19T11:51:34;101939.22;;;11.10;100.00
14117;BME280;7137;51.436;6.544;2023-02-19T11:54:46;101946.75;;;11.33;100.00
14117;BME280;7137;51.436;6.544;2023-02-19T11:57:58;101948.25;;;11.49;100.00
14117;BME280;7137;51.436;6.544;2023-02-19T12:01:11;101944.88;;;11.96;100.00
14117;BME280;7137;51.436;6.544;2023-02-19T12:04:33;101948.88;;;11.63;98.51
14117;BME280;7137;51.436;6.544;2023-02-19T12:11:29;101951.66;;;11.52;95.90
14117;BME280;7137;51.436;6.544;2023-02-19T12:14:57;101964.28;;;11.86;96.49
14117;BME280;7137;51.436;6.544;2023-02-19T12:18:21;101964.09;;;11.38;96.47
14117;BME280;7137;51.436;6.544;2023-02-19T12:21:41;101968.97;;;11.03;97.71
14117;BME280;7137;51.436;6.544;2023-02-19T12:25:15;101956.53;;;11.18;97.79
14117;BME280;7137;51.436;6.544;2023-02-19T12:28:44;101972.06;;;11.30;97.96
14117;BME280;7137;51.436;6.544;2023-02-19T12:35:41;101974.50;;;11.43;98.22
14117;BME280;7137;51.436;6.544;2023-02-19T12:38:51;101977.47;;;11.77;98.85
14117;BME280;7137;51.436;6.544;2023-02-19T12:42:02;101967.38;;;12.08;95.90
14117;BME280;7137;51.436;6.544;2023-02-19T12:45:14;101982.00;;;12.19;95.41
14117;BME280;7137;51.436;6.544;2023-02-19T12:48:23;101972.91;;;11.91;95.68
14117;BME280;7137;51.436;6.544;2023-02-19T12:51:30;101970.63;;;11.70;95.84
14117;BME280;7137;51.436;6.544;2023-02-19T12:54:34;101974.16;;;11.66;95.94
14117;BME280;7137;51.436;6.544;2023-02-19T12:57:39;101962.25;;;11.45;96.87
14117;BME280;7137;51.436;6.544;2023-02-19T13:00:42;101968.19;;;10.94;100.00
14117;BME280;7137;51.436;6.544;2023-02-19T13:03:49;101968.06;;;11.04;100.00
14117;BME280;7137;51.436;6.544;2023-02-19T13:06:57;101969.97;;;10.91;100.00
14117;BME280;7137;51.436;6.544;2023-02-19T13:10:21;101977.03;;;10.83;100.00
14117;BME280;7137;51.436;6.544;2023-02-19T13:13:28;101978.81;;;10.79;100.00
14117;BME280;7137;51.436;6.544;2023-02-19T13:16:33;101980.53;;;10.82;100.00
14117;BME280;7137;51.436;6.544;2023-02-19T13:19:37;101977.81;;;10.91;100.00
14117;BME280;7137;51.436;6.544;2023-02-19T13:22:45;101980.38;;;10.94;100.00
14117;BME280;7137;51.436;6.544;2023-02-19T13:26:29;101977.56;;;11.11;100.00
14117;BME280;7137;51.436;6.544;2023-02-19T13:30:02;101992.56;;;10.96;99.82
14117;BME280;7137;51.436;6.544;2023-02-19T13:33:24;101991.84;;;10.84;98.90
14117;BME280;7137;51.436;6.544;2023-02-19T13:36:33;101992.78;;;10.78;99.33
14117;BME280;7137;51.436;6.544;2023-02-19T13:39:44;101995.31;;;10.86;99.36
14117;BME280;7137;51.436;6.544;2023-02-19T13:42:51;101999.75;;;10.78;99.21
14117;BME280;7137;51.436;6.544;2023-02-19T13:45:56;102006.91;;;10.62;99.06
14117;BME280;7137;51.436;6.544;2023-02-19T13:49:24;102005.50;;;10.30;100.00
14117;BME280;7137;51.436;6.544;2023-02-19T13:52:39;102017.56;;;10.44;100.00
14117;BME280;7137;51.436;6.544;2023-02-19T13:55:50;102021.00;;;10.46;100.00
14117;BME280;7137;51.436;6.544;2023-02-19T13:58:53;102020.88;;;10.59;100.00
14117;BME280;7137;51.436;6.544;2023-02-19T14:02:20;102036.44;;;10.72;99.94
14117;BME280;7137;51.436;6.544;2023-02-19T14:05:55;102047.84;;;10.61;100.00
14117;BME280;7137;51.436;6.544;2023-02-19T14:08:57;102041.78;;;10.59;100.00
14117;BME280;7137;51.436;6.544;2023-02-19T14:12:17;102042.47;;;10.75;100.00
14117;BME280;7137;51.436;6.544;2023-02-19T14:15:41;102036.25;;;10.87;100.00
14117;BME280;7137;51.436;6.544;2023-02-19T14:18:44;102046.84;;;10.75;100.00
14117;BME280;7137;51.436;6.544;2023-02-19T14:21:46;102059.81;;;10.85;99.19
14117;BME280;7137;51.436;6.544;2023-02-19T14:24:48;102051.63;;;11.11;99.50
14117;BME280;7137;51.436;6.544;2023-02-19T14:27:53;102050.91;;;11.02;97.27
14117;BME280;7137;51.436;6.544;2023-02-19T14:30:56;102055.94;;;11.17;96.46
14117;BME280;7137;51.436;6.544;2023-02-19T14:34:02;102055.06;;;11.18;96.87
14117;BME280;7137;51.436;6.544;2023-02-19T14:37:04;102048.47;;;10.86;96.74
14117;BME280;7137;51.436;6.544;2023-02-19T14:40:12;102062.59;;;10.67;98.04
14117;BME280;7137;51.436;6.544;2023-02-19T14:43:23;102063.50;;;10.63;98.75
14117;BME280;7137;51.436;6.544;2023-02-19T14:46:29;102052.84;;;10.83;98.39
14117;BME280;7137;51.436;6.544;2023-02-19T14:49:38;102061.44;;;10.92;97.66
14117;BME280;7137;51.436;6.544;2023-02-19T14:52:45;102056.88;;;11.11;96.65
14117;BME280;7137;51.436;6.544;2023-02-19T14:55:49;102056.00;;;11.11;98.29
14117;BME280;7137;51.436;6.544;2023-02-19T14:59:21;102054.06;;;11.28;95.34
14117;BME280;7137;51.436;6.544;2023-02-19T15:02:24;102043.59;;;11.28;94.16
14117;BME280;7137;51.436;6.544;2023-02-19T15:05:28;102033.88;;;11.36;94.33
14117;BME280;7137;51.436;6.544;2023-02-19T15:08:33;102031.34;;;11.32;93.47
14117;BME280;7137;51.436;6.544;2023-02-19T15:11:39;102034.22;;;11.13;95.49
14117;BME280;7137;51.436;6.544;2023-02-19T15:14:44;102027.97;;;11.22;93.96
14117;BME280;7137;51.436;6.544;2023-02-19T15:17:46;102025.56;;;11.05;93.99
14117;BME280;7137;51.436;6.544;2023-02-19T15:20:48;102017.75;;;11.04;95.00
14117;BME280;7137;51.436;6.544;2023-02-19T15:23:53;102009.19;;;10.91;95.62
14117;BME280;7137;51.436;6.544;2023-02-19T15:26:55;101999.13;;;10.54;95.79
14117;BME280;7137;51.436;6.544;2023-02-19T15:29:58;101994.06;;;10.40;95.54
14117;BME280;7137;51.436;6.544;2023-02-19T15:33:00;101998.44;;;10.38;96.22
14117;BME280;7137;51.436;6.544;2023-02-19T15:36:04;101990.44;;;10.54;96.30
14117;BME280;7137;51.436;6.544;2023-02-19T15:39:15;101991.38;;;10.48;96.37
14117;BME280;7137;51.436;6.544;2023-02-19T15:42:20;101993.09;;;10.49;95.75
14117;BME280;7137;51.436;6.544;2023-02-19T15:45:26;101995.03;;;10.30;96.26
14117;BME280;7137;51.436;6.544;2023-02-19T15:48:34;101991.47;;;10.39;93.98
14117;BME280;7137;51.436;6.544;2023-02-19T15:51:41;102007.25;;;10.28;93.75
14117;BME280;7137;51.436;6.544;2023-02-19T15:54:49;102010.09;;;9.95;93.75
14117;BME280;7137;51.436;6.544;2023-02-19T15:57:57;102017.00;;;10.03;94.68
14117;BME280;7137;51.436;6.544;2023-02-19T16:01:04;102020.72;;;9.75;94.87
14117;BME280;7137;51.436;6.544;2023-02-19T16:04:11;102033.84;;;9.57;94.22
14117;BME280;7137;51.436;6.544;2023-02-19T16:07:22;102036.47;;;9.53;96.84
14117;BME280;7137;51.436;6.544;2023-02-19T16:10:24;102041.72;;;9.50;95.21
14117;BME280;7137;51.436;6.544;2023-02-19T16:13:31;102055.56;;;9.65;93.89
14117;BME280;7137;51.436;6.544;2023-02-19T16:16:37;102046.03;;;9.53;93.61
14117;BME280;7137;51.436;6.544;2023-02-19T16:19:45;102052.94;;;9.63;93.07
14117;BME280;7137;51.436;6.544;2023-02-19T16:22:47;102057.28;;;9.66;93.87
14117;BME280;7137;51.436;6.544;2023-02-19T16:25:56;102067.69;;;9.70;93.65